sensor_id;sensor_type;location;lat;lon;timestamp;P1;P2;P0
43393;PMS5003;62479;62.642;17.954;2022-08-21T00:01:24;24;24;
43393;PMS5003;62479;62.642;17.954;2022-08-21T00:05:06;21;21;
43393;PMS5003;62479;62.642;17.954;2022-08-21T00:09:32;20;20;
43393;PMS5003;62479;62.642;17.954;2022-08-21T00:11:43;21;21;
43393;PMS5003;62479;62.642;17.954;2022-08-21T00:15:58;23;22;
43393;PMS5003;62479;62.642;17.954;2022-08-21T00:19:02;28;27;
43393;PMS5003;62479;62.642;17.954;2022-08-21T00:25:23;30;29;
43393;PMS5003;62479;62.642;17.954;2022-08-21T00:28:34;22;22;
43393;PMS5003;62479;62.642;17.954;2022-08-21T00:31:59;22;21;
43393;PMS5003;62479;62.642;17.954;2022-08-21T00:35:38;24;24;
43393;PMS5003;62479;62.642;17.954;2022-08-21T00:39:41;21;21;
43393;PMS5003;62479;62.642;17.954;2022-08-21T00:42:46;29;29;
43393;PMS5003;62479;62.642;17.954;2022-08-21T00:45:53;24;24;
43393;PMS5003;62479;62.642;17.954;2022-08-21T00:49:54;21;20;
43393;PMS5003;62479;62.642;17.954;2022-08-21T00:53:03;23;23;
43393;PMS5003;62479;62.642;17.954;2022-08-21T00:58:18;26;25;
43393;PMS5003;62479;62.642;17.954;2022-08-21T01:02:21;29;29;
43393;PMS5003;62479;62.642;17.954;2022-08-21T01:19:17;27;26;
43393;PMS5003;62479;62.642;17.954;2022-08-21T02:01:04;28;28;
43393;PMS5003;62479;62.642;17.954;2022-08-21T02:05:11;26;25;
43393;PMS5003;62479;62.642;17.954;2022-08-21T02:10:07;25;24;
43393;PMS5003;62479;62.642;17.954;2022-08-21T04:07:30;24;24;
43393;PMS5003;62479;62.642;17.954;2022-08-21T05:22:56;28;28;
43393;PMS5003;62479;62.642;17.954;2022-08-21T05:29:10;26;25;
43393;PMS5003;62479;62.642;17.954;2022-08-21T05:33:40;25;25;
43393;PMS5003;62479;62.642;17.954;2022-08-21T06:32:21;20;20;
43393;PMS5003;62479;62.642;17.954;2022-08-21T06:35:47;18;18;
43393;PMS5003;62479;62.642;17.954;2022-08-21T06:40:26;22;22;
43393;PMS5003;62479;62.642;17.954;2022-08-21T06:43:35;20;19;
43393;PMS5003;62479;62.642;17.954;2022-08-21T06:46:59;20;20;
43393;PMS5003;62479;62.642;17.954;2022-08-21T06:50:05;18;18;
43393;PMS5003;62479;62.642;17.954;2022-08-21T06:54:00;20;20;
43393;PMS5003;62479;62.642;17.954;2022-08-21T06:57:24;23;22;
43393;PMS5003;62479;62.642;17.954;2022-08-21T07:00:37;19;19;
43393;PMS5003;62479;62.642;17.954;2022-08-21T07:04:59;21;21;
43393;PMS5003;62479;62.642;17.954;2022-08-21T07:08:04;24;23;
43393;PMS5003;62479;62.642;17.954;2022-08-21T10:06:51;15;14;
43393;PMS5003;62479;62.642;17.954;2022-08-21T10:10:19;16;15;
43393;PMS5003;62479;62.642;17.954;2022-08-21T10:16:28;13;13;
43393;PMS5003;62479;62.642;17.954;2022-08-21T10:19:43;13;12;
43393;PMS5003;62479;62.642;17.954;2022-08-21T10:22:58;16;15;
43393;PMS5003;62479;62.642;17.954;2022-08-21T10:26:11;15;15;
43393;PMS5003;62479;62.642;17.954;2022-08-21T10:29:39;18;18;
43393;PMS5003;62479;62.642;17.954;2022-08-21T10:32:54;14;14;
43393;PMS5003;62479;62.642;17.954;2022-08-21T10:36:19;15;15;
43393;PMS5003;62479;62.642;17.954;2022-08-21T10:39:56;18;17;
43393;PMS5003;62479;62.642;17.954;2022-08-21T10:43:35;13;13;
43393;PMS5003;62479;62.642;17.954;2022-08-21T10:50:27;12;12;
43393;PMS5003;62479;62.642;17.954;2022-08-21T10:53:44;9;9;
43393;PMS5003;62479;62.642;17.954;2022-08-21T10:56:56;9;9;
43393;PMS5003;62479;62.642;17.954;2022-08-21T11:00:30;10;10;
43393;PMS5003;62479;62.642;17.954;2022-08-21T11:05:18;11;10;
43393;PMS5003;62479;62.642;17.954;2022-08-21T11:07:54;10;10;
43393;PMS5003;62479;62.642;17.954;2022-08-21T11:11:24;9;9;
43393;PMS5003;62479;62.642;17.954;2022-08-21T11:13:56;9;9;
43393;PMS5003;62479;62.642;17.954;2022-08-21T11:16:33;8;8;
43393;PMS5003;62479;62.642;17.954;2022-08-21T11:19:11;8;8;
43393;PMS5003;62479;62.642;17.954;2022-08-21T11:22:44;8;8;
43393;PMS5003;62479;62.642;17.954;2022-08-21T11:25:21;8;8;
43393;PMS5003;62479;62.642;17.954;2022-08-21T11:28:10;9;8;
43393;PMS5003;62479;62.642;17.954;2022-08-21T11:30:48;10;9;
43393;PMS5003;62479;62.642;17.954;2022-08-21T11:33:32;7;7;
43393;PMS5003;62479;62.642;17.954;2022-08-21T11:36:15;7;7;
43393;PMS5003;62479;62.642;17.954;2022-08-21T11:39:49;10;8;
43393;PMS5003;62479;62.642;17.954;2022-08-21T11:42:27;6;6;
43393;PMS5003;62479;62.642;17.954;2022-08-21T11:45:13;8;8;
43393;PMS5003;62479;62.642;17.954;2022-08-21T11:47:59;8;8;
43393;PMS5003;62479;62.642;17.954;2022-08-21T11:50:38;8;7;
43393;PMS5003;62479;62.642;17.954;2022-08-21T11:53:12;7;6;
43393;PMS5003;62479;62.642;17.954;2022-08-21T11:55:47;6;6;
43393;PMS5003;62479;62.642;17.954;2022-08-21T11:58:23;8;8;
43393;PMS5003;62479;62.642;17.954;2022-08-21T12:00:56;7;7;
43393;PMS5003;62479;62.642;17.954;2022-08-21T12:03:30;6;6;
43393;PMS5003;62479;62.642;17.954;2022-08-21T12:06:02;7;7;
43393;PMS5003;62479;62.642;17.954;2022-08-21T12:08:34;7;7;
43393;PMS5003;62479;62.642;17.954;2022-08-21T12:11:05;5;5;
43393;PMS5003;62479;62.642;17.954;2022-08-21T12:13:36;6;6;
43393;PMS5003;62479;62.642;17.954;2022-08-21T12:16:09;7;7;
43393;PMS5003;62479;62.642;17.954;2022-08-21T12:18:41;6;6;
43393;PMS5003;62479;62.642;17.954;2022-08-21T12:21:27;7;7;
43393;PMS5003;62479;62.642;17.954;2022-08-21T12:24:04;9;8;
43393;PMS5003;62479;62.642;17.954;2022-08-21T12:26:48;8;8;
43393;PMS5003;62479;62.642;17.954;2022-08-21T12:29:21;3;3;
43393;PMS5003;62479;62.642;17.954;2022-08-21T12:31:56;7;6;
43393;PMS5003;62479;62.642;17.954;2022-08-21T12:34:31;8;7;
43393;PMS5003;62479;62.642;17.954;2022-08-21T12:37:04;6;6;
43393;PMS5003;62479;62.642;17.954;2022-08-21T12:39:36;5;4;
43393;PMS5003;62479;62.642;17.954;2022-08-21T12:42:11;5;5;
43393;PMS5003;62479;62.642;17.954;2022-08-21T12:44:46;6;6;
43393;PMS5003;62479;62.642;17.954;2022-08-21T12:47:22;6;5;
43393;PMS5003;62479;62.642;17.954;2022-08-21T12:50:00;6;6;
43393;PMS5003;62479;62.642;17.954;2022-08-21T12:52:36;7;7;
43393;PMS5003;62479;62.642;17.954;2022-08-21T12:55:13;7;6;
43393;PMS5003;62479;62.642;17.954;2022-08-21T12:57:44;9;8;
43393;PMS5003;62479;62.642;17.954;2022-08-21T13:00:13;6;6;
43393;PMS5003;62479;62.642;17.954;2022-08-21T13:02:49;6;6;
43393;PMS5003;62479;62.642;17.954;2022-08-21T13:05:19;8;7;
43393;PMS5003;62479;62.642;17.954;2022-08-21T13:07:55;5;5;
43393;PMS5003;62479;62.642;17.954;2022-08-21T13:10:24;6;6;
43393;PMS5003;62479;62.642;17.954;2022-08-21T13:12:57;6;6;
43393;PMS5003;62479;62.642;17.954;2022-08-21T13:15:31;5;5;
43393;PMS5003;62479;62.642;17.954;2022-08-21T13:18:03;6;6;
43393;PMS5003;62479;62.642;17.954;2022-08-21T13:20:34;6;6;
43393;PMS5003;62479;62.642;17.954;2022-08-21T13:23:08;5;5;
43393;PMS5003;62479;62.642;17.954;2022-08-21T13:25:47;7;5;
43393;PMS5003;62479;62.642;17.954;2022-08-21T13:28:16;5;5;
43393;PMS5003;62479;62.642;17.954;2022-08-21T13:30:46;5;5;
43393;PMS5003;62479;62.642;17.954;2022-08-21T13:33:18;7;7;
43393;PMS5003;62479;62.642;17.954;2022-08-21T13:35:50;5;5;
43393;PMS5003;62479;62.642;17.954;2022-08-21T13:38:25;6;6;
43393;PMS5003;62479;62.642;17.954;2022-08-21T13:40:57;5;5;
43393;PMS5003;62479;62.642;17.954;2022-08-21T13:43:31;6;5;
43393;PMS5003;62479;62.642;17.954;2022-08-21T13:46:01;5;5;
43393;PMS5003;62479;62.642;17.954;2022-08-21T13:48:34;6;6;
43393;PMS5003;62479;62.642;17.954;2022-08-21T13:51:04;3;3;
43393;PMS5003;62479;62.642;17.954;2022-08-21T13:53:34;6;5;
43393;PMS5003;62479;62.642;17.954;2022-08-21T13:56:04;6;5;
43393;PMS5003;62479;62.642;17.954;2022-08-21T13:58:41;4;3;
43393;PMS5003;62479;62.642;17.954;2022-08-21T14:01:19;6;5;
43393;PMS5003;62479;62.642;17.954;2022-08-21T14:03:51;5;5;
43393;PMS5003;62479;62.642;17.954;2022-08-21T14:06:23;6;5;
43393;PMS5003;62479;62.642;17.954;2022-08-21T14:08:59;5;5;
43393;PMS5003;62479;62.642;17.954;2022-08-21T14:11:34;4;4;
43393;PMS5003;62479;62.642;17.954;2022-08-21T14:14:05;4;4;
43393;PMS5003;62479;62.642;17.954;2022-08-21T14:16:53;5;5;
43393;PMS5003;62479;62.642;17.954;2022-08-21T14:19:25;6;6;
43393;PMS5003;62479;62.642;17.954;2022-08-21T14:21:56;6;6;
43393;PMS5003;62479;62.642;17.954;2022-08-21T14:24:25;5;5;
43393;PMS5003;62479;62.642;17.954;2022-08-21T14:26:56;4;4;
43393;PMS5003;62479;62.642;17.954;2022-08-21T14:29:34;4;3;
43393;PMS5003;62479;62.642;17.954;2022-08-21T14:32:09;7;7;
43393;PMS5003;62479;62.642;17.954;2022-08-21T14:34:42;5;4;
43393;PMS5003;62479;62.642;17.954;2022-08-21T14:37:11;5;5;
43393;PMS5003;62479;62.642;17.954;2022-08-21T14:39:39;4;4;
43393;PMS5003;62479;62.642;17.954;2022-08-21T14:42:07;4;4;
43393;PMS5003;62479;62.642;17.954;2022-08-21T14:44:36;4;4;
43393;PMS5003;62479;62.642;17.954;2022-08-21T14:47:05;6;5;
43393;PMS5003;62479;62.642;17.954;2022-08-21T14:49:34;6;5;
43393;PMS5003;62479;62.642;17.954;2022-08-21T14:52:02;8;6;
43393;PMS5003;62479;62.642;17.954;2022-08-21T14:54:32;5;5;
43393;PMS5003;62479;62.642;17.954;2022-08-21T14:57:01;5;4;
43393;PMS5003;62479;62.642;17.954;2022-08-21T14:59:34;8;7;
43393;PMS5003;62479;62.642;17.954;2022-08-21T15:02:09;16;15;
43393;PMS5003;62479;62.642;17.954;2022-08-21T15:04:45;6;6;
43393;PMS5003;62479;62.642;17.954;2022-08-21T15:07:14;6;6;
43393;PMS5003;62479;62.642;17.954;2022-08-21T15:09:44;5;5;
43393;PMS5003;62479;62.642;17.954;2022-08-21T15:12:19;7;7;
43393;PMS5003;62479;62.642;17.954;2022-08-21T15:14:46;7;6;
43393;PMS5003;62479;62.642;17.954;2022-08-21T15:17:16;6;6;
43393;PMS5003;62479;62.642;17.954;2022-08-21T15:19:52;6;6;
43393;PMS5003;62479;62.642;17.954;2022-08-21T15:22:26;5;5;
43393;PMS5003;62479;62.642;17.954;2022-08-21T15:24:56;5;5;
43393;PMS5003;62479;62.642;17.954;2022-08-21T15:27:24;9;9;
43393;PMS5003;62479;62.642;17.954;2022-08-21T15:29:53;6;5;
43393;PMS5003;62479;62.642;17.954;2022-08-21T15:32:22;5;5;
43393;PMS5003;62479;62.642;17.954;2022-08-21T15:34:51;7;7;
43393;PMS5003;62479;62.642;17.954;2022-08-21T15:37:22;5;5;
43393;PMS5003;62479;62.642;17.954;2022-08-21T15:39:52;5;5;
43393;PMS5003;62479;62.642;17.954;2022-08-21T15:42:20;4;3;
43393;PMS5003;62479;62.642;17.954;2022-08-21T15:44:49;5;5;
43393;PMS5003;62479;62.642;17.954;2022-08-21T15:47:21;5;5;
43393;PMS5003;62479;62.642;17.954;2022-08-21T15:49:53;5;5;
43393;PMS5003;62479;62.642;17.954;2022-08-21T15:52:23;4;4;
43393;PMS5003;62479;62.642;17.954;2022-08-21T15:54:51;5;4;
43393;PMS5003;62479;62.642;17.954;2022-08-21T15:57:21;4;4;
43393;PMS5003;62479;62.642;17.954;2022-08-21T15:59:57;6;6;
43393;PMS5003;62479;62.642;17.954;2022-08-21T16:03:19;5;5;
43393;PMS5003;62479;62.642;17.954;2022-08-21T16:05:51;5;4;
43393;PMS5003;62479;62.642;17.954;2022-08-21T16:08:26;5;5;
43393;PMS5003;62479;62.642;17.954;2022-08-21T16:10:55;6;6;
43393;PMS5003;62479;62.642;17.954;2022-08-21T16:13:24;3;3;
43393;PMS5003;62479;62.642;17.954;2022-08-21T16:15:55;3;3;
43393;PMS5003;62479;62.642;17.954;2022-08-21T16:18:23;5;5;
43393;PMS5003;62479;62.642;17.954;2022-08-21T16:20:52;5;5;
43393;PMS5003;62479;62.642;17.954;2022-08-21T16:23:22;5;5;
43393;PMS5003;62479;62.642;17.954;2022-08-21T16:25:51;6;5;
43393;PMS5003;62479;62.642;17.954;2022-08-21T16:28:20;6;6;
43393;PMS5003;62479;62.642;17.954;2022-08-21T16:30:54;5;5;
43393;PMS5003;62479;62.642;17.954;2022-08-21T16:33:34;6;6;
43393;PMS5003;62479;62.642;17.954;2022-08-21T16:36:05;5;5;
43393;PMS5003;62479;62.642;17.954;2022-08-21T16:38:35;4;4;
43393;PMS5003;62479;62.642;17.954;2022-08-21T16:41:04;6;6;
43393;PMS5003;62479;62.642;17.954;2022-08-21T16:43:34;5;4;
43393;PMS5003;62479;62.642;17.954;2022-08-21T16:46:04;4;4;
43393;PMS5003;62479;62.642;17.954;2022-08-21T16:48:35;4;4;
43393;PMS5003;62479;62.642;17.954;2022-08-21T16:51:04;3;3;
43393;PMS5003;62479;62.642;17.954;2022-08-21T16:53:32;5;4;
43393;PMS5003;62479;62.642;17.954;2022-08-21T16:56:01;6;6;
43393;PMS5003;62479;62.642;17.954;2022-08-21T16:58:31;4;4;
43393;PMS5003;62479;62.642;17.954;2022-08-21T17:01:03;5;4;
43393;PMS5003;62479;62.642;17.954;2022-08-21T17:03:47;5;4;
43393;PMS5003;62479;62.642;17.954;2022-08-21T17:06:26;5;5;
43393;PMS5003;62479;62.642;17.954;2022-08-21T17:08:56;6;6;
43393;PMS5003;62479;62.642;17.954;2022-08-21T17:11:27;4;4;
43393;PMS5003;62479;62.642;17.954;2022-08-21T17:13:58;5;5;
43393;PMS5003;62479;62.642;17.954;2022-08-21T17:16:29;6;6;
43393;PMS5003;62479;62.642;17.954;2022-08-21T17:18:58;5;5;
43393;PMS5003;62479;62.642;17.954;2022-08-21T17:21:28;5;4;
43393;PMS5003;62479;62.642;17.954;2022-08-21T17:23:57;5;4;
43393;PMS5003;62479;62.642;17.954;2022-08-21T17:26:25;5;5;
43393;PMS5003;62479;62.642;17.954;2022-08-21T17:28:53;5;4;
43393;PMS5003;62479;62.642;17.954;2022-08-21T17:31:29;4;4;
43393;PMS5003;62479;62.642;17.954;2022-08-21T17:33:57;7;6;
43393;PMS5003;62479;62.642;17.954;2022-08-21T17:36:26;5;5;
43393;PMS5003;62479;62.642;17.954;2022-08-21T17:38:58;5;5;
43393;PMS5003;62479;62.642;17.954;2022-08-21T17:41:26;7;6;
43393;PMS5003;62479;62.642;17.954;2022-08-21T17:43:56;5;5;
43393;PMS5003;62479;62.642;17.954;2022-08-21T17:46:28;6;5;
43393;PMS5003;62479;62.642;17.954;2022-08-21T17:48:56;6;5;
43393;PMS5003;62479;62.642;17.954;2022-08-21T17:51:25;6;5;
43393;PMS5003;62479;62.642;17.954;2022-08-21T17:53:54;5;4;
43393;PMS5003;62479;62.642;17.954;2022-08-21T17:56:22;4;4;
43393;PMS5003;62479;62.642;17.954;2022-08-21T17:58:54;7;5;
43393;PMS5003;62479;62.642;17.954;2022-08-21T18:01:22;5;4;
43393;PMS5003;62479;62.642;17.954;2022-08-21T18:03:52;5;5;
43393;PMS5003;62479;62.642;17.954;2022-08-21T18:06:26;6;5;
43393;PMS5003;62479;62.642;17.954;2022-08-21T18:08:54;3;3;
43393;PMS5003;62479;62.642;17.954;2022-08-21T18:11:24;7;7;
43393;PMS5003;62479;62.642;17.954;2022-08-21T18:13:55;5;5;
43393;PMS5003;62479;62.642;17.954;2022-08-21T18:16:27;5;5;
43393;PMS5003;62479;62.642;17.954;2022-08-21T18:18:58;5;5;
43393;PMS5003;62479;62.642;17.954;2022-08-21T18:21:28;4;4;
43393;PMS5003;62479;62.642;17.954;2022-08-21T18:23:58;4;4;
43393;PMS5003;62479;62.642;17.954;2022-08-21T18:26:27;5;5;
43393;PMS5003;62479;62.642;17.954;2022-08-21T18:28:58;5;4;
43393;PMS5003;62479;62.642;17.954;2022-08-21T18:31:30;8;8;
43393;PMS5003;62479;62.642;17.954;2022-08-21T18:34:02;4;4;
43393;PMS5003;62479;62.642;17.954;2022-08-21T18:36:36;4;4;
43393;PMS5003;62479;62.642;17.954;2022-08-21T18:39:04;4;4;
43393;PMS5003;62479;62.642;17.954;2022-08-21T18:41:33;6;5;
43393;PMS5003;62479;62.642;17.954;2022-08-21T18:44:01;5;5;
43393;PMS5003;62479;62.642;17.954;2022-08-21T18:46:30;5;4;
43393;PMS5003;62479;62.642;17.954;2022-08-21T18:48:58;5;4;
43393;PMS5003;62479;62.642;17.954;2022-08-21T18:51:26;4;4;
43393;PMS5003;62479;62.642;17.954;2022-08-21T18:53:55;5;4;
43393;PMS5003;62479;62.642;17.954;2022-08-21T18:56:24;4;4;
43393;PMS5003;62479;62.642;17.954;2022-08-21T18:58:52;5;5;
43393;PMS5003;62479;62.642;17.954;2022-08-21T19:01:20;3;3;
43393;PMS5003;62479;62.642;17.954;2022-08-21T19:03:49;6;4;
43393;PMS5003;62479;62.642;17.954;2022-08-21T19:06:17;5;5;
43393;PMS5003;62479;62.642;17.954;2022-08-21T19:08:46;5;4;
43393;PMS5003;62479;62.642;17.954;2022-08-21T19:11:14;5;5;
43393;PMS5003;62479;62.642;17.954;2022-08-21T19:13:43;7;6;
43393;PMS5003;62479;62.642;17.954;2022-08-21T19:16:14;3;3;
43393;PMS5003;62479;62.642;17.954;2022-08-21T19:18:43;6;6;
43393;PMS5003;62479;62.642;17.954;2022-08-21T19:21:12;5;5;
43393;PMS5003;62479;62.642;17.954;2022-08-21T19:23:42;8;7;
43393;PMS5003;62479;62.642;17.954;2022-08-21T19:26:11;4;4;
43393;PMS5003;62479;62.642;17.954;2022-08-21T19:28:42;5;5;
43393;PMS5003;62479;62.642;17.954;2022-08-21T19:31:14;6;6;
43393;PMS5003;62479;62.642;17.954;2022-08-21T19:33:46;5;5;
43393;PMS5003;62479;62.642;17.954;2022-08-21T19:36:17;4;4;
43393;PMS5003;62479;62.642;17.954;2022-08-21T19:38:46;6;5;
43393;PMS5003;62479;62.642;17.954;2022-08-21T19:41:14;4;4;
43393;PMS5003;62479;62.642;17.954;2022-08-21T19:43:45;6;5;
43393;PMS5003;62479;62.642;17.954;2022-08-21T19:46:19;4;3;
43393;PMS5003;62479;62.642;17.954;2022-08-21T19:48:52;6;5;
43393;PMS5003;62479;62.642;17.954;2022-08-21T19:51:21;4;4;
43393;PMS5003;62479;62.642;17.954;2022-08-21T19:53:51;6;5;
43393;PMS5003;62479;62.642;17.954;2022-08-21T19:56:21;4;4;
43393;PMS5003;62479;62.642;17.954;2022-08-21T19:58:53;5;5;
43393;PMS5003;62479;62.642;17.954;2022-08-21T20:01:24;4;4;
43393;PMS5003;62479;62.642;17.954;2022-08-21T20:03:55;5;5;
43393;PMS5003;62479;62.642;17.954;2022-08-21T20:06:24;3;3;
43393;PMS5003;62479;62.642;17.954;2022-08-21T20:08:52;3;3;
43393;PMS5003;62479;62.642;17.954;2022-08-21T20:11:23;4;4;
43393;PMS5003;62479;62.642;17.954;2022-08-21T20:13:55;4;4;
43393;PMS5003;62479;62.642;17.954;2022-08-21T20:16:25;4;4;
43393;PMS5003;62479;62.642;17.954;2022-08-21T20:18:53;4;3;
43393;PMS5003;62479;62.642;17.954;2022-08-21T20:21:22;5;4;
43393;PMS5003;62479;62.642;17.954;2022-08-21T20:23:50;6;6;
43393;PMS5003;62479;62.642;17.954;2022-08-21T20:26:19;4;4;
43393;PMS5003;62479;62.642;17.954;2022-08-21T20:28:54;4;4;
43393;PMS5003;62479;62.642;17.954;2022-08-21T20:31:23;5;5;
43393;PMS5003;62479;62.642;17.954;2022-08-21T20:33:53;6;6;
43393;PMS5003;62479;62.642;17.954;2022-08-21T20:36:22;3;3;
43393;PMS5003;62479;62.642;17.954;2022-08-21T20:38:50;4;4;
43393;PMS5003;62479;62.642;17.954;2022-08-21T20:41:19;5;5;
43393;PMS5003;62479;62.642;17.954;2022-08-21T20:43:50;5;5;
43393;PMS5003;62479;62.642;17.954;2022-08-21T20:46:20;5;4;
43393;PMS5003;62479;62.642;17.954;2022-08-21T20:48:49;4;4;
43393;PMS5003;62479;62.642;17.954;2022-08-21T20:51:20;3;3;
43393;PMS5003;62479;62.642;17.954;2022-08-21T20:53:53;6;5;
43393;PMS5003;62479;62.642;17.954;2022-08-21T20:56:32;5;5;
43393;PMS5003;62479;62.642;17.954;2022-08-21T20:59:09;4;4;
43393;PMS5003;62479;62.642;17.954;2022-08-21T21:01:46;5;5;
43393;PMS5003;62479;62.642;17.954;2022-08-21T21:04:23;3;3;
43393;PMS5003;62479;62.642;17.954;2022-08-21T21:06:59;4;4;
43393;PMS5003;62479;62.642;17.954;2022-08-21T21:09:30;5;5;
43393;PMS5003;62479;62.642;17.954;2022-08-21T21:12:04;4;4;
43393;PMS5003;62479;62.642;17.954;2022-08-21T21:14:38;7;6;
43393;PMS5003;62479;62.642;17.954;2022-08-21T21:17:15;4;4;
43393;PMS5003;62479;62.642;17.954;2022-08-21T21:19:49;6;5;
43393;PMS5003;62479;62.642;17.954;2022-08-21T21:22:23;4;3;
43393;PMS5003;62479;62.642;17.954;2022-08-21T21:24:55;7;5;
43393;PMS5003;62479;62.642;17.954;2022-08-21T21:27:28;5;5;
43393;PMS5003;62479;62.642;17.954;2022-08-21T21:30:04;4;4;
43393;PMS5003;62479;62.642;17.954;2022-08-21T21:32:36;6;6;
43393;PMS5003;62479;62.642;17.954;2022-08-21T21:35:05;4;4;
43393;PMS5003;62479;62.642;17.954;2022-08-21T21:37:36;5;5;
43393;PMS5003;62479;62.642;17.954;2022-08-21T21:40:21;5;5;
43393;PMS5003;62479;62.642;17.954;2022-08-21T21:43:06;5;5;
43393;PMS5003;62479;62.642;17.954;2022-08-21T21:45:49;5;5;
43393;PMS5003;62479;62.642;17.954;2022-08-21T21:48:30;6;5;
43393;PMS5003;62479;62.642;17.954;2022-08-21T21:51:12;7;6;
43393;PMS5003;62479;62.642;17.954;2022-08-21T21:53:54;6;6;
43393;PMS5003;62479;62.642;17.954;2022-08-21T21:56:32;4;3;
43393;PMS5003;62479;62.642;17.954;2022-08-21T21:59:12;4;4;
43393;PMS5003;62479;62.642;17.954;2022-08-21T22:03:27;6;6;
43393;PMS5003;62479;62.642;17.954;2022-08-21T22:06:04;5;5;
43393;PMS5003;62479;62.642;17.954;2022-08-21T22:08:38;4;4;
43393;PMS5003;62479;62.642;17.954;2022-08-21T22:11:19;5;5;
43393;PMS5003;62479;62.642;17.954;2022-08-21T22:13:55;5;5;
43393;PMS5003;62479;62.642;17.954;2022-08-21T22:16:30;4;4;
43393;PMS5003;62479;62.642;17.954;2022-08-21T22:19:01;4;4;
43393;PMS5003;62479;62.642;17.954;2022-08-21T22:21:39;5;5;
43393;PMS5003;62479;62.642;17.954;2022-08-21T22:24:17;4;4;
43393;PMS5003;62479;62.642;17.954;2022-08-21T22:26:51;7;5;
43393;PMS5003;62479;62.642;17.954;2022-08-21T22:29:26;5;5;
43393;PMS5003;62479;62.642;17.954;2022-08-21T22:32:10;5;5;
43393;PMS5003;62479;62.642;17.954;2022-08-21T22:34:40;3;3;
43393;PMS5003;62479;62.642;17.954;2022-08-21T22:37:09;4;4;
43393;PMS5003;62479;62.642;17.954;2022-08-21T22:39:40;4;4;
43393;PMS5003;62479;62.642;17.954;2022-08-21T22:42:11;6;6;
43393;PMS5003;62479;62.642;17.954;2022-08-21T22:44:47;4;4;
43393;PMS5003;62479;62.642;17.954;2022-08-21T22:47:24;3;3;
43393;PMS5003;62479;62.642;17.954;2022-08-21T22:49:58;4;4;
43393;PMS5003;62479;62.642;17.954;2022-08-21T22:52:31;5;5;
43393;PMS5003;62479;62.642;17.954;2022-08-21T22:55:14;4;4;
43393;PMS5003;62479;62.642;17.954;2022-08-21T22:57:58;6;6;
43393;PMS5003;62479;62.642;17.954;2022-08-21T23:00:48;4;4;
43393;PMS5003;62479;62.642;17.954;2022-08-21T23:03:30;5;5;
43393;PMS5003;62479;62.642;17.954;2022-08-21T23:06:02;3;3;
43393;PMS5003;62479;62.642;17.954;2022-08-21T23:08:34;4;4;
43393;PMS5003;62479;62.642;17.954;2022-08-21T23:11:10;5;5;
43393;PMS5003;62479;62.642;17.954;2022-08-21T23:13:42;4;4;
43393;PMS5003;62479;62.642;17.954;2022-08-21T23:16:22;6;6;
43393;PMS5003;62479;62.642;17.954;2022-08-21T23:19:11;4;4;
43393;PMS5003;62479;62.642;17.954;2022-08-21T23:21:49;6;6;
43393;PMS5003;62479;62.642;17.954;2022-08-21T23:24:29;5;5;
43393;PMS5003;62479;62.642;17.954;2022-08-21T23:27:10;5;5;
43393;PMS5003;62479;62.642;17.954;2022-08-21T23:29:50;6;5;
43393;PMS5003;62479;62.642;17.954;2022-08-21T23:32:45;5;5;
43393;PMS5003;62479;62.642;17.954;2022-08-21T23:35:39;4;4;
43393;PMS5003;62479;62.642;17.954;2022-08-21T23:38:12;5;5;
43393;PMS5003;62479;62.642;17.954;2022-08-21T23:40:49;5;5;
43393;PMS5003;62479;62.642;17.954;2022-08-21T23:43:29;5;5;
43393;PMS5003;62479;62.642;17.954;2022-08-21T23:46:11;6;6;
43393;PMS5003;62479;62.642;17.954;2022-08-21T23:48:53;5;5;
43393;PMS5003;62479;62.642;17.954;2022-08-21T23:51:32;5;5;
43393;PMS5003;62479;62.642;17.954;2022-08-21T23:54:07;4;4;
43393;PMS5003;62479;62.642;17.954;2022-08-21T23:56:50;5;5;
43393;PMS5003;62479;62.642;17.954;2022-08-21T23:59:32;3;3;
